Deerfield, WI

6:47 PM CDT on October 31, 2014 (GMT -0500)
Cottage Grove | Change Station
CLOSE
Current Station
Personal Weather Station
Location: Cottage Grove, WI
Elevation: 922 ft
Nearby Weather Stations

Elev 922 ft 43.10 °N, 89.17 °W | Updated 2 minutes ago

Mostly Cloudy
Mostly Cloudy
34.5 °F
Feels Like 30 °F
N
4.5
Wind Variable Wind from North
Gusts 6.9 mph

Today
High -- | Low -- °F
--% Chance of Precip.
Yesterday
High -- | Low -- °F
Precip. -- in
7:29 AM 5:49 PM
First Quarter, 60% visible
Pressure 30.42 in
Visibility 10.0 miles
Clouds Mostly Cloudy 5000 ft
Windchill 30 °F
Dew Point 19 °F
Humidity 52%
Rainfall 0.00 in
Snow Depth Not available.
UV 0 out of 12
Pollen .10 out of 12
Air Quality Not available.
Flu Activity Not available.
METAR KMSN 312253Z 35008KT 10SM BKN050 02/M08 A3039 RMK AO2 SLP301 T00221083

More Conditions Fewer Conditions

Pressure 30.42 in
Visibility 10.0 miles
Clouds Mostly Cloudy 5000 ft
Windchill 30 °F
Dew Point 19 °F
Humidity 52%
Rainfall 0.00 in
Snow Depth Not available.
UV 0 out of 12
Pollen .10 out of 12
Air Quality Not available.
Flu Activity Not available.
METAR KMSN 312253Z 35008KT 10SM BKN050 02/M08 A3039 RMK AO2 SLP301 T00221083

More Conditions Fewer Conditions

10-Day Weather Forecast

Almanac

Astronomy

Oct. 31, 2014 Rise Set
Actual Time
Civil Twilight
Nautical Twilight
Astronomical Twilight
Moon
Length of Visible Light
Length of Day
Tomorrow will be .
, % of the Moon is Illuminated

Today's Extremes

State Highs State Lows

Community

WunderPhotos

Upload Photos

1,766,786 photos uploaded!

WunderBlogs® & News

Nearby

Air Quality

  Air Quality AQ Index Pollutant
Not available.

Snow Depth

Station Depth Elevation

Earthquake Activity

City Distance Mag. Time & Date
Minimum magnitude displayed is 2.5.

Coastal Water Temperatures

Place Temperature

Nearby Weather Stations